createdAt,value
2023-05-02T00:00:15.612Z,50
2023-05-02T00:05:19.019Z,50
2023-05-02T00:10:18.667Z,50
2023-05-02T00:15:20.735Z,50
2023-05-02T00:20:21.276Z,50
2023-05-02T00:25:26.193Z,49
2023-05-02T00:30:15.009Z,50
2023-05-02T00:35:17.810Z,50
2023-05-02T00:40:22.638Z,49
2023-05-02T00:45:18.546Z,50
2023-05-02T00:50:20.874Z,50
2023-05-02T00:55:25.868Z,49
2023-05-02T01:00:14.029Z,49
2023-05-02T01:05:19.806Z,49
2023-05-02T01:10:24.810Z,49
2023-05-02T01:15:23.686Z,50
2023-05-02T01:20:17.120Z,49
2023-05-02T01:25:20.066Z,50
2023-05-02T01:30:16.532Z,48
2023-05-02T01:35:18.460Z,49
2023-05-02T01:40:16.585Z,50
2023-05-02T01:45:16.563Z,50
2023-05-02T01:50:22.817Z,48
2023-05-02T01:55:19.728Z,50
2023-05-02T02:00:15.925Z,49
2023-05-02T02:05:15.791Z,49
2023-05-02T02:10:20.468Z,49
2023-05-02T02:15:16.221Z,49
2023-05-02T02:20:20.426Z,49
2023-05-02T02:25:20.365Z,49
2023-05-02T02:30:14.694Z,49
2023-05-02T02:35:20.705Z,49
2023-05-02T02:40:25.391Z,48
2023-05-02T02:45:14.265Z,49
2023-05-02T02:50:14.387Z,49
2023-05-02T02:55:18.113Z,49
2023-05-02T03:00:22.533Z,48
2023-05-02T03:05:20.779Z,49
2023-05-02T03:10:14.912Z,49
2023-05-02T03:15:19.884Z,49
2023-05-02T03:20:14.141Z,49
2023-05-02T03:25:13.753Z,49
2023-05-02T03:30:17.079Z,49
2023-05-02T03:35:13.907Z,49
2023-05-02T03:40:14.823Z,48
2023-05-02T03:45:13.879Z,49
2023-05-02T03:50:14.509Z,48
2023-05-02T03:55:14.470Z,49
2023-05-02T04:00:24.681Z,48
2023-05-02T04:05:23.129Z,49
2023-05-02T04:10:17.632Z,49
2023-05-02T04:15:20.541Z,49
2023-05-02T04:20:22.497Z,48
2023-05-02T04:25:16.400Z,49
2023-05-02T04:30:23.925Z,49
2023-05-02T04:35:15.670Z,51
2023-05-02T04:40:16.998Z,52
2023-05-02T04:45:18.327Z,54
2023-05-02T04:50:16.878Z,54
2023-05-02T04:55:14.460Z,53
2023-05-02T05:00:15.288Z,52
2023-05-02T05:05:14.654Z,52
2023-05-02T05:10:25.717Z,56
2023-05-02T05:15:24.936Z,55
2023-05-02T05:20:18.669Z,55
2023-05-02T05:25:21.399Z,55
2023-05-02T05:30:21.993Z,55
2023-05-02T05:35:17.994Z,55
2023-05-02T05:40:17.773Z,54
2023-05-02T05:45:22.733Z,53
2023-05-02T05:50:17.406Z,54
2023-05-02T05:55:22.537Z,54
2023-05-02T06:00:23.936Z,53
2023-05-02T06:05:18.703Z,54
2023-05-02T06:10:21.458Z,53
2023-05-02T06:15:20.759Z,53
2023-05-02T06:20:18.882Z,54
2023-05-02T06:25:14.085Z,54
2023-05-02T06:30:15.870Z,54
2023-05-02T06:35:13.969Z,54
2023-05-02T06:40:17.798Z,53
2023-05-02T06:45:21.310Z,54
2023-05-02T06:50:23.420Z,53
2023-05-02T06:55:22.473Z,53
2023-05-02T07:00:17.557Z,53
2023-05-02T07:05:15.508Z,52
2023-05-02T07:10:16.850Z,52
2023-05-02T07:15:20.960Z,52
2023-05-02T07:20:20.380Z,52
2023-05-02T07:25:14.674Z,52
2023-05-02T07:30:15.713Z,53
2023-05-02T07:35:18.702Z,51
2023-05-02T07:40:16.364Z,52
2023-05-02T07:45:20.532Z,52
2023-05-02T07:50:20.431Z,53
2023-05-02T07:55:16.475Z,52
2023-05-02T08:00:22.930Z,53
2023-05-02T08:05:19.133Z,52
2023-05-02T08:10:15.948Z,52
2023-05-02T08:15:18.522Z,52
2023-05-02T08:20:25.166Z,52
2023-05-02T08:25:16.329Z,52
2023-05-02T08:30:16.131Z,52
2023-05-02T08:35:19.930Z,51
2023-05-02T08:40:40.734Z,51
2023-05-02T08:45:16.892Z,52
2023-05-02T08:50:17.298Z,52
2023-05-02T08:55:16.338Z,52
2023-05-02T09:00:14.327Z,52
2023-05-02T09:05:17.426Z,52
2023-05-02T09:10:16.213Z,51
2023-05-02T09:15:14.704Z,52
2023-05-02T09:20:15.059Z,51
2023-05-02T09:25:16.296Z,52
2023-05-02T09:30:22.540Z,51
2023-05-02T09:35:26.062Z,52
2023-05-02T09:40:15.023Z,53
2023-05-02T09:45:19.108Z,53
2023-05-02T09:50:15.862Z,53
2023-05-02T09:55:20.351Z,52
2023-05-02T10:00:14.417Z,53
2023-05-02T10:05:14.844Z,52
2023-05-02T10:10:15.007Z,53
2023-05-02T10:15:26.109Z,49
2023-05-02T10:20:15.377Z,47
2023-05-02T10:25:23.780Z,47
2023-05-02T10:30:17.105Z,48
2023-05-02T10:35:17.001Z,48
2023-05-02T10:40:22.328Z,49
2023-05-02T10:45:16.746Z,49
2023-05-02T10:50:20.744Z,49
2023-05-02T10:55:18.761Z,49
2023-05-02T11:00:25.837Z,49
2023-05-02T11:05:19.180Z,49
2023-05-02T11:10:16.291Z,49
2023-05-02T11:15:17.038Z,49
2023-05-02T11:20:18.497Z,50
2023-05-02T11:25:18.800Z,50
2023-05-02T11:30:22.004Z,50
2023-05-02T11:35:16.513Z,50
2023-05-02T11:40:20.506Z,50
2023-05-02T11:45:20.835Z,49
2023-05-02T11:50:13.626Z,50
2023-05-02T11:55:17.776Z,50
2023-05-02T12:00:17.136Z,50
2023-05-02T12:05:17.875Z,49
2023-05-02T12:10:14.006Z,50
2023-05-02T12:15:21.415Z,50
2023-05-02T12:20:18.774Z,50
2023-05-02T12:25:18.895Z,50
2023-05-02T12:30:22.671Z,50
2023-05-02T12:35:16.958Z,50
2023-05-02T12:40:19.836Z,50
2023-05-02T12:45:16.048Z,49
2023-05-02T12:50:17.694Z,48
2023-05-02T12:55:19.049Z,48
2023-05-02T13:00:16.399Z,48
2023-05-02T13:05:16.519Z,50
2023-05-02T13:10:21.806Z,48
2023-05-02T13:15:14.744Z,50
2023-05-02T13:20:15.734Z,49
2023-05-02T13:25:21.310Z,50
2023-05-02T13:30:22.408Z,50
2023-05-02T13:35:18.298Z,50
2023-05-02T13:40:24.400Z,50
2023-05-02T13:45:18.896Z,49
2023-05-02T13:50:17.704Z,50
2023-05-02T13:55:21.343Z,50
2023-05-02T14:05:15.702Z,50
2023-05-02T14:10:19.122Z,51
2023-05-02T14:15:18.041Z,51
2023-05-02T14:20:18.084Z,51
2023-05-02T14:25:22.318Z,51
2023-05-02T14:30:16.206Z,51
2023-05-02T14:35:13.979Z,51
2023-05-02T14:40:29.393Z,51
2023-05-02T14:45:14.309Z,50
2023-05-02T14:50:22.431Z,50
2023-05-02T14:55:22.747Z,51
2023-05-02T15:00:16.933Z,51
2023-05-02T15:05:14.516Z,50
2023-05-02T15:10:28.408Z,51
2023-05-02T15:15:18.299Z,51
2023-05-02T15:20:18.167Z,50
2023-05-02T15:25:19.052Z,50
2023-05-02T15:30:23.778Z,51
2023-05-02T15:35:19.629Z,51
2023-05-02T15:40:23.620Z,50
2023-05-02T15:45:18.347Z,51
2023-05-02T15:50:24.606Z,51
2023-05-02T15:55:22.460Z,51
2023-05-02T16:00:17.101Z,51
2023-05-02T16:05:17.868Z,51
2023-05-02T16:10:16.255Z,52
2023-05-02T16:15:15.765Z,51
2023-05-02T16:20:24.565Z,51
2023-05-02T16:25:24.458Z,51
2023-05-02T16:30:19.340Z,51
2023-05-02T16:35:16.135Z,52
2023-05-02T16:40:21.169Z,52
2023-05-02T16:45:18.587Z,51
2023-05-02T16:50:18.928Z,50
2023-05-02T16:55:17.727Z,50
2023-05-02T17:00:26.862Z,52
2023-05-02T17:05:16.046Z,51
2023-05-02T17:10:20.549Z,52
2023-05-02T17:15:18.357Z,52
2023-05-02T17:20:19.982Z,52
2023-05-02T17:25:19.433Z,51
2023-05-02T17:30:16.795Z,51
2023-05-02T17:35:20.804Z,51
2023-05-02T17:40:18.700Z,50
2023-05-02T17:45:13.527Z,51
2023-05-02T17:50:19.643Z,51
2023-05-02T17:55:20.716Z,51
2023-05-02T18:00:20.785Z,51
2023-05-02T18:05:19.495Z,51
2023-05-02T18:10:18.372Z,51
2023-05-02T18:15:20.581Z,51
2023-05-02T18:20:19.398Z,51
2023-05-02T18:25:23.825Z,51
2023-05-02T18:30:18.380Z,52
2023-05-02T18:35:17.499Z,51
2023-05-02T18:40:18.806Z,52
2023-05-02T18:45:19.396Z,51
2023-05-02T18:50:14.537Z,50
2023-05-02T18:55:17.654Z,52
2023-05-02T19:00:19.161Z,52
2023-05-02T19:05:20.261Z,52
2023-05-02T19:10:23.975Z,52
2023-05-02T19:15:17.499Z,51
2023-05-02T19:20:17.631Z,52
2023-05-02T19:25:16.206Z,51
2023-05-02T19:30:14.165Z,51
2023-05-02T19:35:24.222Z,51
2023-05-02T19:40:16.281Z,51
2023-05-02T19:45:19.825Z,51
2023-05-02T19:50:21.841Z,51
2023-05-02T19:55:17.342Z,51
2023-05-02T20:00:22.555Z,50
2023-05-02T20:05:22.420Z,51
2023-05-02T20:10:18.458Z,51
2023-05-02T20:15:18.351Z,51
2023-05-02T20:20:15.832Z,50
2023-05-02T20:25:25.520Z,51
2023-05-02T20:30:26.576Z,50
2023-05-02T20:35:14.401Z,50
2023-05-02T20:40:22.798Z,50
2023-05-02T20:45:19.681Z,50
2023-05-02T20:55:17.602Z,50
2023-05-02T21:00:18.159Z,50
2023-05-02T21:05:18.087Z,49
2023-05-02T21:10:15.734Z,50
2023-05-02T21:15:16.657Z,50
2023-05-02T21:20:17.068Z,50
2023-05-02T21:25:13.720Z,50
2023-05-02T21:30:20.528Z,50
2023-05-02T21:35:19.336Z,50
2023-05-02T21:40:19.932Z,50
2023-05-02T21:45:14.150Z,50
2023-05-02T21:50:15.674Z,48
2023-05-02T21:55:14.785Z,48
2023-05-02T22:00:16.753Z,48
2023-05-02T22:05:23.013Z,50
2023-05-02T22:10:17.774Z,48
2023-05-02T22:15:15.844Z,49
2023-05-02T22:20:17.526Z,49
2023-05-02T22:25:18.893Z,49
2023-05-02T22:30:15.638Z,48
2023-05-02T22:35:20.886Z,49
2023-05-02T22:40:15.685Z,48
2023-05-02T22:45:18.803Z,49
2023-05-02T22:50:20.469Z,49
2023-05-02T22:55:16.357Z,49
2023-05-02T23:00:20.612Z,49
2023-05-02T23:05:14.424Z,49
2023-05-02T23:10:16.274Z,49
2023-05-02T23:15:18.494Z,49
2023-05-02T23:20:23.877Z,49
2023-05-02T23:25:20.462Z,49
2023-05-02T23:30:22.553Z,49
2023-05-02T23:35:16.348Z,48
2023-05-02T23:40:24.325Z,48
2023-05-02T23:45:14.241Z,49
2023-05-02T23:50:15.663Z,49
2023-05-02T23:55:18.734Z,49
